createdAt,value
2022-08-14T00:01:10.049Z,100647.53
2022-08-14T00:03:38.456Z,100640.94
2022-08-14T00:06:13.991Z,100639.41
2022-08-14T00:08:52.999Z,100635.13
2022-08-14T00:11:19.676Z,100637.38
2022-08-14T00:13:52.743Z,100634.47
2022-08-14T00:16:41.379Z,100633.50
2022-08-14T00:19:19.761Z,100625.88
2022-08-14T00:21:51.893Z,100618.91
2022-08-14T00:24:22.935Z,100618.53
2022-08-14T00:26:55.540Z,100617.19
2022-08-14T00:29:22.026Z,100614.38
2022-08-14T00:31:56.161Z,100617.28
2022-08-14T00:34:36.804Z,100605.88
2022-08-14T00:37:10.873Z,100615.16
2022-08-14T00:39:37.671Z,100613.91
2022-08-14T00:42:05.921Z,100618.09
2022-08-14T00:44:33.280Z,100609.78
2022-08-14T00:47:10.871Z,100607.94
2022-08-14T00:49:43.044Z,100604.59
2022-08-14T00:52:14.147Z,100603.38
2022-08-14T00:54:45.798Z,100604.38
2022-08-14T00:57:12.852Z,100599.13
2022-08-14T00:59:39.592Z,100597.97
2022-08-14T01:02:09.459Z,100590.53
2022-08-14T01:04:54.391Z,100586.91
2022-08-14T01:07:22.812Z,100574.03
2022-08-14T01:10:07.607Z,100570.19
2022-08-14T01:12:34.122Z,100570.72
2022-08-14T01:15:09.460Z,100573.41
2022-08-14T01:17:55.251Z,100574.59
2022-08-14T01:20:41.265Z,100568.63
2022-08-14T01:23:16.843Z,100558.31
2022-08-14T01:25:47.974Z,100564.59
2022-08-14T01:28:34.374Z,100553.75
2022-08-14T01:31:02.003Z,100560.22
2022-08-14T01:33:30.043Z,100563.38
2022-08-14T01:36:05.480Z,100566.75
2022-08-14T01:38:37.055Z,100558.00
2022-08-14T01:41:14.954Z,100551.34
2022-08-14T01:43:56.051Z,100557.84
2022-08-14T01:46:25.398Z,100564.28
2022-08-14T01:49:02.076Z,100563.25
2022-08-14T01:51:30.359Z,100561.34
2022-08-14T01:54:05.781Z,100564.78
2022-08-14T01:56:39.772Z,100558.94
2022-08-14T01:59:06.349Z,100558.34
2022-08-14T02:01:37.043Z,100555.81
2022-08-14T02:04:05.174Z,100560.88
2022-08-14T02:06:50.955Z,100556.34
2022-08-14T02:09:22.591Z,100557.19
2022-08-14T02:11:54.582Z,100555.97
2022-08-14T02:14:30.988Z,100556.06
2022-08-14T02:16:59.719Z,100557.78
2022-08-14T02:19:31.581Z,100556.44
2022-08-14T02:22:03.133Z,100554.72
2022-08-14T02:24:40.341Z,100553.75
2022-08-14T02:28:23.886Z,100553.75
2022-08-14T02:30:01.316Z,100549.16
2022-08-14T02:32:30.288Z,100558.28
2022-08-14T02:35:21.959Z,100544.09
2022-08-14T02:37:52.971Z,100539.88
2022-08-14T02:40:32.055Z,100546.94
2022-08-14T02:43:03.672Z,100547.78
2022-08-14T02:45:38.201Z,100546.31
2022-08-14T02:49:03.243Z,100540.91
2022-08-14T02:51:00.944Z,100543.66
2022-08-14T02:53:29.485Z,100547.91
2022-08-14T02:56:02.600Z,100538.88
2022-08-14T02:58:33.203Z,100537.69
2022-08-14T03:01:01.341Z,100538.31
2022-08-14T03:03:31.718Z,100534.25
2022-08-14T03:05:59.084Z,100535.59
2022-08-14T03:08:31.589Z,100523.75
2022-08-14T03:10:59.185Z,100527.34
2022-08-14T03:13:25.719Z,100529.50
2022-08-14T03:15:55.096Z,100531.59
2022-08-14T03:18:31.372Z,100539.38
2022-08-14T03:21:06.026Z,100537.72
2022-08-14T03:23:37.681Z,100528.56
2022-08-14T03:26:07.846Z,100520.25
2022-08-14T03:28:34.454Z,100541.94
2022-08-14T03:31:04.263Z,100537.69
2022-08-14T03:33:40.818Z,100539.91
2022-08-14T03:37:51.035Z,100532.41
2022-08-14T03:39:15.529Z,100524.16
2022-08-14T03:41:46.475Z,100529.91
2022-08-14T03:45:20.037Z,100517.41
2022-08-14T03:46:59.848Z,100519.41
2022-08-14T03:49:30.297Z,100523.47
2022-08-14T03:52:00.580Z,100515.22
2022-08-14T03:54:28.191Z,100513.16
2022-08-14T03:56:54.920Z,100509.56
2022-08-14T03:59:21.603Z,100505.91
2022-08-14T04:01:58.217Z,100508.09
2022-08-14T04:04:28.111Z,100508.75
2022-08-14T04:06:55.062Z,100500.44
2022-08-14T04:09:26.954Z,100500.03
2022-08-14T04:11:53.760Z,100504.91
2022-08-14T04:14:20.317Z,100492.72
2022-08-14T04:16:48.016Z,100491.88
2022-08-14T04:19:18.734Z,100489.50
2022-08-14T04:22:01.884Z,100482.94
2022-08-14T04:24:37.791Z,100483.47
2022-08-14T04:27:06.188Z,100475.66
2022-08-14T04:29:42.692Z,100475.44
2022-08-14T04:33:02.684Z,100473.56
2022-08-14T04:34:58.592Z,100476.81
2022-08-14T04:37:45.157Z,100480.53
2022-08-14T04:40:31.695Z,100466.72
2022-08-14T04:43:17.734Z,100467.75
2022-08-14T04:45:44.843Z,100471.59
2022-08-14T04:48:13.497Z,100461.78
2022-08-14T04:50:45.466Z,100454.34
2022-08-14T04:53:34.852Z,100456.88
2022-08-14T04:56:03.330Z,100460.28
2022-08-14T04:58:34.335Z,100453.31
2022-08-14T05:01:06.112Z,100449.78
2022-08-14T05:03:39.896Z,100451.19
2022-08-14T05:06:37.569Z,100448.53
2022-08-14T05:08:59.623Z,100454.38
2022-08-14T05:11:27.309Z,100448.06
2022-08-14T05:14:34.474Z,100446.75
2022-08-14T05:16:42.541Z,100444.75
2022-08-14T05:19:17.632Z,100443.69
2022-08-14T05:22:01.367Z,100445.25
2022-08-14T05:24:40.526Z,100444.91
2022-08-14T05:27:06.974Z,100440.09
2022-08-14T05:29:35.212Z,100443.06
2022-08-14T05:32:07.447Z,100451.59
2022-08-14T05:34:34.185Z,100448.59
2022-08-14T05:37:03.144Z,100450.66
2022-08-14T05:39:31.148Z,100446.88
2022-08-14T05:41:58.017Z,100442.41
2022-08-14T05:44:29.618Z,100440.66
2022-08-14T05:46:57.335Z,100428.03
2022-08-14T05:49:32.879Z,100427.09
2022-08-14T05:52:01.911Z,100423.66
2022-08-14T05:54:35.357Z,100425.91
2022-08-14T05:57:04.327Z,100422.72
2022-08-14T05:59:39.067Z,100423.19
2022-08-14T06:02:06.951Z,100421.72
2022-08-14T06:04:33.498Z,100425.34
2022-08-14T06:06:59.983Z,100414.69
2022-08-14T06:09:26.532Z,100404.88
2022-08-14T06:11:53.243Z,100411.03
2022-08-14T06:14:24.049Z,100399.38
2022-08-14T06:16:53.044Z,100404.53
2022-08-14T06:19:20.361Z,100399.94
2022-08-14T06:21:54.398Z,100401.19
2022-08-14T06:24:24.677Z,100396.66
2022-08-14T06:26:56.733Z,100397.47
2022-08-14T06:29:32.242Z,100400.09
2022-08-14T06:32:36.848Z,100395.56
2022-08-14T06:35:09.852Z,100388.84
2022-08-14T06:38:00.075Z,100377.13
2022-08-14T06:40:36.381Z,100369.78
2022-08-14T06:43:10.061Z,100370.41
2022-08-14T06:45:38.696Z,100369.28
2022-08-14T06:48:14.496Z,100371.56
2022-08-14T06:50:45.470Z,100373.75
2022-08-14T06:53:14.662Z,100366.56
2022-08-14T06:55:58.233Z,100362.66
2022-08-14T06:58:29.205Z,100362.09
2022-08-14T07:01:15.836Z,100363.31
2022-08-14T07:04:01.029Z,100368.50
2022-08-14T07:06:46.435Z,100365.59
2022-08-14T07:09:19.807Z,100371.44
2022-08-14T07:11:50.636Z,100372.50
2022-08-14T07:14:17.548Z,100358.22
2022-08-14T07:16:44.087Z,100364.09
2022-08-14T07:19:11.312Z,100357.59
2022-08-14T07:21:39.003Z,100367.03
2022-08-14T07:24:05.796Z,100365.75
2022-08-14T07:26:36.476Z,100363.94
2022-08-14T07:29:05.758Z,100363.47
2022-08-14T07:31:33.499Z,100358.66
2022-08-14T07:34:00.060Z,100357.81
2022-08-14T07:36:31.235Z,100362.00
2022-08-14T07:39:02.923Z,100359.72
2022-08-14T07:41:33.680Z,100358.38
2022-08-14T07:44:22.478Z,100351.75
2022-08-14T07:46:48.206Z,100348.09
2022-08-14T07:49:18.044Z,100349.31
2022-08-14T07:51:44.989Z,100352.91
2022-08-14T07:54:12.424Z,100346.94
2022-08-14T07:56:47.557Z,100339.38
2022-08-14T07:59:18.566Z,100346.28
2022-08-14T08:01:48.271Z,100343.69
2022-08-14T08:04:27.254Z,100343.69
2022-08-14T08:06:54.980Z,100338.84
2022-08-14T08:09:25.014Z,100350.22
2022-08-14T08:12:01.807Z,100344.53
2022-08-14T08:14:55.490Z,100346.97
2022-08-14T08:17:23.215Z,100345.53
2022-08-14T08:19:51.636Z,100339.53
2022-08-14T08:22:21.134Z,100339.97
2022-08-14T08:24:50.540Z,100347.44
2022-08-14T08:27:19.769Z,100344.19
2022-08-14T08:29:50.509Z,100354.09
2022-08-14T08:32:18.159Z,100336.53
2022-08-14T08:34:46.185Z,100351.13
2022-08-14T08:37:14.541Z,100348.88
2022-08-14T08:40:02.976Z,100346.94
2022-08-14T08:42:38.415Z,100341.25
2022-08-14T08:45:12.258Z,100336.00
2022-08-14T08:47:43.159Z,100334.00
2022-08-14T08:53:04.040Z,100339.75
2022-08-14T08:55:45.205Z,100336.72
2022-08-14T08:58:20.177Z,100318.97
2022-08-14T09:00:54.836Z,100321.09
2022-08-14T09:03:25.641Z,100321.34
2022-08-14T09:05:57.763Z,100331.28
2022-08-14T09:08:32.761Z,100335.06
2022-08-14T09:11:19.289Z,100316.66
2022-08-14T09:13:50.335Z,100324.38
2022-08-14T09:16:21.037Z,100318.31
2022-08-14T09:18:48.934Z,100317.78
2022-08-14T09:21:16.391Z,100309.88
2022-08-14T09:24:27.482Z,100316.75
2022-08-14T09:26:29.989Z,100313.09
2022-08-14T09:29:00.044Z,100318.66
2022-08-14T09:31:42.937Z,100308.22
2022-08-14T09:34:37.110Z,100317.75
2022-08-14T09:37:08.196Z,100300.59
2022-08-14T09:39:50.348Z,100302.63
2022-08-14T09:42:36.948Z,100297.25
2022-08-14T09:45:20.873Z,100295.19
2022-08-14T09:47:51.844Z,100300.06
2022-08-14T09:50:29.774Z,100283.06
2022-08-14T09:53:05.794Z,100284.63
2022-08-14T09:55:44.707Z,100293.19
2022-08-14T09:58:14.816Z,100282.63
2022-08-14T10:01:00.712Z,100274.22
2022-08-14T10:03:35.945Z,100272.38
2022-08-14T10:06:10.170Z,100265.97
2022-08-14T10:09:06.491Z,100270.41
2022-08-14T10:11:43.365Z,100272.19
2022-08-14T10:14:35.255Z,100264.47
2022-08-14T10:17:06.270Z,100253.13
2022-08-14T10:19:35.529Z,100257.94
2022-08-14T10:23:12.613Z,100249.09
2022-08-14T10:24:57.302Z,100243.78
2022-08-14T10:27:27.129Z,100243.66
2022-08-14T10:29:58.095Z,100234.25
2022-08-14T10:32:28.789Z,100235.25
2022-08-14T10:35:10.910Z,100233.50
2022-08-14T10:37:46.713Z,100238.13
2022-08-14T10:40:37.835Z,100224.00
2022-08-14T10:43:02.717Z,100236.06
2022-08-14T10:45:33.915Z,100235.56
2022-08-14T10:48:08.741Z,100238.06
2022-08-14T10:50:51.483Z,100230.53
2022-08-14T10:53:29.333Z,100225.66
2022-08-14T10:56:03.958Z,100232.06
2022-08-14T10:58:32.976Z,100223.84
2022-08-14T11:01:08.161Z,100216.38
2022-08-14T11:03:56.896Z,100214.13
2022-08-14T11:06:24.547Z,100212.91
2022-08-14T11:08:52.193Z,100202.59
2022-08-14T11:11:22.875Z,100205.63
2022-08-14T11:13:50.626Z,100212.63
2022-08-14T11:16:18.233Z,100202.97
2022-08-14T11:18:50.793Z,100213.56
2022-08-14T11:23:49.275Z,100210.56
2022-08-14T11:26:20.298Z,100206.56
2022-08-14T11:28:49.735Z,100191.66
2022-08-14T11:31:23.940Z,100185.78
2022-08-14T11:33:55.288Z,100186.53
2022-08-14T11:36:24.053Z,100180.03
2022-08-14T11:39:33.589Z,100197.50
2022-08-14T11:42:57.348Z,100181.59
2022-08-14T11:44:51.175Z,100179.38
2022-08-14T11:47:20.538Z,100178.09
2022-08-14T11:49:48.497Z,100176.38
2022-08-14T11:52:19.315Z,100175.00
2022-08-14T11:54:58.216Z,100171.84
2022-08-14T11:57:25.285Z,100171.09
2022-08-14T12:00:08.517Z,100151.16
2022-08-14T12:03:02.747Z,100144.03
2022-08-14T12:05:42.323Z,100149.53
2022-08-14T12:08:13.312Z,100153.59
2022-08-14T12:10:43.930Z,100152.63
2022-08-14T12:13:17.838Z,100133.91
2022-08-14T12:15:46.227Z,100121.22
2022-08-14T12:18:19.841Z,100130.97
2022-08-14T12:20:52.302Z,100121.44
2022-08-14T12:23:23.542Z,100131.31
2022-08-14T12:26:31.568Z,100120.34
2022-08-14T12:28:59.809Z,100109.81
2022-08-14T12:31:27.307Z,100101.78
2022-08-14T12:34:02.124Z,100105.81
2022-08-14T12:36:37.660Z,100107.16
2022-08-14T12:39:17.368Z,100101.16
2022-08-14T12:41:57.350Z,100101.84
2022-08-14T12:44:32.221Z,100101.91
2022-08-14T12:47:17.773Z,100087.59
2022-08-14T12:49:52.455Z,100092.88
2022-08-14T12:53:02.031Z,100082.34
2022-08-14T12:55:44.146Z,100077.28
2022-08-14T12:58:35.545Z,100073.72
2022-08-14T13:01:16.640Z,100067.03
2022-08-14T13:03:45.608Z,100070.84
2022-08-14T13:06:14.545Z,100050.56
2022-08-14T13:08:52.661Z,100057.84
2022-08-14T13:11:23.754Z,100052.22
2022-08-14T13:13:53.833Z,100055.78
2022-08-14T13:16:37.951Z,100037.78
2022-08-14T13:19:11.038Z,100034.09
2022-08-14T13:22:05.804Z,100022.78
2022-08-14T13:24:27.725Z,100021.72
2022-08-14T13:26:58.189Z,100035.94
2022-08-14T13:29:31.460Z,100028.78
2022-08-14T13:31:58.697Z,100021.38
2022-08-14T13:34:29.187Z,100005.91
2022-08-14T13:37:04.118Z,100005.94
2022-08-14T13:39:36.146Z,99995.09
2022-08-14T13:42:08.574Z,99992.66
2022-08-14T13:44:42.809Z,99987.28
2022-08-14T13:47:10.288Z,99984.16
2022-08-14T13:49:40.239Z,99985.84
2022-08-14T13:52:49.195Z,99985.34
2022-08-14T13:55:13.517Z,99984.81
2022-08-14T13:57:49.557Z,99982.53
2022-08-14T14:00:21.808Z,99968.50
2022-08-14T14:02:59.944Z,99959.47
2022-08-14T14:05:52.263Z,99955.34
2022-08-14T14:08:18.704Z,99945.41
2022-08-14T14:11:02.300Z,99945.16
2022-08-14T14:13:31.137Z,99945.06
2022-08-14T14:16:02.763Z,99941.75
2022-08-14T14:18:34.913Z,99942.16
2022-08-14T14:21:02.929Z,99938.72
2022-08-14T14:23:31.093Z,99927.59
2022-08-14T14:25:59.690Z,99926.00
2022-08-14T14:28:31.830Z,99922.16
2022-08-14T14:31:05.836Z,99921.94
2022-08-14T14:33:50.749Z,99923.94
2022-08-14T14:36:26.459Z,99912.28
2022-08-14T14:38:54.341Z,99909.91
2022-08-14T14:41:23.062Z,99908.25
2022-08-14T14:43:51.868Z,99911.56
2022-08-14T14:46:19.898Z,99911.91
2022-08-14T14:48:53.957Z,99911.28
2022-08-14T14:51:21.801Z,99909.19
2022-08-14T14:53:48.439Z,99910.09
2022-08-14T14:56:48.005Z,99909.91
2022-08-14T14:59:01.987Z,99913.28
2022-08-14T15:01:28.739Z,99909.78
2022-08-14T15:03:55.483Z,99906.75
2022-08-14T15:06:30.260Z,99902.69
2022-08-14T15:08:59.959Z,99901.13
2022-08-14T15:11:30.269Z,99896.22
2022-08-14T15:13:58.395Z,99892.00
2022-08-14T15:16:26.915Z,99888.41
2022-08-14T15:18:53.968Z,99887.59
2022-08-14T15:21:20.746Z,99881.09
2022-08-14T15:23:48.078Z,99879.81
2022-08-14T15:26:23.814Z,99887.84
2022-08-14T15:29:05.655Z,99884.97
2022-08-14T15:31:34.902Z,99877.44
2022-08-14T15:34:45.807Z,99876.94
2022-08-14T15:37:00.261Z,99871.91
2022-08-14T15:39:29.509Z,99865.88
2022-08-14T15:42:02.108Z,99870.38
2022-08-14T15:44:34.390Z,99860.66
2022-08-14T15:47:07.003Z,99864.63
2022-08-14T15:49:35.136Z,99855.72
2022-08-14T15:52:03.234Z,99844.19
2022-08-14T15:54:31.398Z,99849.06
2022-08-14T15:57:08.302Z,99852.06
2022-08-14T15:59:55.407Z,99849.72
2022-08-14T16:02:24.618Z,99840.25
2022-08-14T16:04:55.227Z,99842.41
2022-08-14T16:07:22.145Z,99833.56
2022-08-14T16:10:11.843Z,99835.38
2022-08-14T16:12:41.771Z,99835.25
2022-08-14T16:15:14.373Z,99823.63
2022-08-14T16:17:44.859Z,99824.16
2022-08-14T16:20:11.803Z,99816.06
2022-08-14T16:22:58.987Z,99812.63
2022-08-14T16:28:27.699Z,99807.81
2022-08-14T16:30:56.123Z,99810.47
2022-08-14T16:36:19.700Z,99804.06
2022-08-14T16:39:00.019Z,99808.09
2022-08-14T16:41:29.868Z,99806.53
2022-08-14T16:44:31.566Z,99804.44
2022-08-14T16:47:02.497Z,99805.22
2022-08-14T16:50:03.191Z,99804.78
2022-08-14T16:52:25.171Z,99811.34
2022-08-14T16:55:05.952Z,99809.00
2022-08-14T16:57:34.050Z,99803.03
2022-08-14T17:00:00.910Z,99803.06
2022-08-14T17:02:42.742Z,99803.63
2022-08-14T17:05:16.479Z,99792.25
2022-08-14T17:08:32.970Z,99786.38
2022-08-14T17:11:09.674Z,99795.69
2022-08-14T17:13:57.947Z,99786.59
2022-08-14T17:16:25.651Z,99777.09
2022-08-14T17:19:00.816Z,99780.53
2022-08-14T17:21:41.103Z,99771.97
2022-08-14T17:24:55.850Z,99775.69
2022-08-14T17:26:59.986Z,99773.19
2022-08-14T17:29:33.824Z,99764.94
2022-08-14T17:32:22.043Z,99764.75
2022-08-14T17:34:55.283Z,99767.63
2022-08-14T17:37:28.981Z,99772.69
2022-08-14T17:40:16.017Z,99763.41
2022-08-14T17:42:51.009Z,99757.41
2022-08-14T17:45:28.170Z,99768.22
2022-08-14T17:47:59.011Z,99765.59
2022-08-14T17:51:01.205Z,99768.50
2022-08-14T17:53:30.564Z,99765.31
2022-08-14T17:56:02.535Z,99767.66
2022-08-14T17:58:30.902Z,99773.41
2022-08-14T18:01:06.005Z,99771.13
2022-08-14T18:03:51.053Z,99770.88
2022-08-14T18:06:39.551Z,99767.03
2022-08-14T18:09:26.144Z,99773.06
2022-08-14T18:11:59.063Z,99769.94
2022-08-14T18:14:32.346Z,99768.88
2022-08-14T18:17:01.477Z,99770.53
2022-08-14T18:19:31.070Z,99769.06
2022-08-14T18:22:05.650Z,99769.44
2022-08-14T18:24:51.469Z,99777.38
2022-08-14T18:27:23.138Z,99767.88
2022-08-14T18:29:55.214Z,99766.66
2022-08-14T18:32:31.577Z,99764.91
2022-08-14T18:35:03.656Z,99761.91
2022-08-14T18:37:39.262Z,99761.00
2022-08-14T18:40:17.640Z,99767.91
2022-08-14T18:42:47.499Z,99769.25
2022-08-14T18:45:28.753Z,99771.72
2022-08-14T18:48:18.610Z,99781.47
2022-08-14T18:50:53.115Z,99776.25
2022-08-14T18:53:24.276Z,99772.16
2022-08-14T18:56:02.127Z,99780.59
2022-08-14T18:58:58.824Z,99778.13
2022-08-14T19:01:29.963Z,99787.13
2022-08-14T19:03:59.499Z,99788.88
2022-08-14T19:06:37.569Z,99785.06
2022-08-14T19:09:05.102Z,99782.56
2022-08-14T19:11:32.086Z,99790.31
2022-08-14T19:14:04.958Z,99788.16
2022-08-14T19:16:34.910Z,99793.81
2022-08-14T19:19:04.043Z,99786.97
2022-08-14T19:21:32.456Z,99786.03
2022-08-14T19:24:30.052Z,99791.44
2022-08-14T19:27:23.886Z,99794.97
2022-08-14T19:30:19.702Z,99798.81
2022-08-14T19:32:50.726Z,99795.81
2022-08-14T19:35:19.244Z,99797.09
2022-08-14T19:37:54.945Z,99801.56
2022-08-14T19:40:33.381Z,99797.97
2022-08-14T19:43:02.992Z,99787.84
2022-08-14T19:45:33.862Z,99789.78
2022-08-14T19:48:02.035Z,99794.22
2022-08-14T19:50:40.255Z,99791.03
2022-08-14T19:53:12.028Z,99787.31
2022-08-14T19:55:58.643Z,99784.88
2022-08-14T19:58:55.268Z,99788.25
2022-08-14T20:01:37.127Z,99789.16
2022-08-14T20:04:45.116Z,99792.78
2022-08-14T20:06:56.222Z,99785.63
2022-08-14T20:11:06.553Z,99785.16
2022-08-14T20:12:29.123Z,99787.59
2022-08-14T20:15:06.884Z,99790.63
2022-08-14T20:17:40.814Z,99793.47
2022-08-14T20:20:30.850Z,99790.88
2022-08-14T20:23:02.423Z,99800.03
2022-08-14T20:25:55.892Z,99790.84
2022-08-14T20:28:30.759Z,99793.34
2022-08-14T20:31:14.427Z,99781.84
2022-08-14T20:34:19.002Z,99790.50
2022-08-14T20:37:09.880Z,99787.50
2022-08-14T20:39:54.683Z,99782.88
2022-08-14T20:42:43.318Z,99773.72
2022-08-14T20:45:24.152Z,99777.50
2022-08-14T20:48:09.097Z,99790.50
2022-08-14T20:50:36.648Z,99782.53
2022-08-14T20:53:28.800Z,99783.25
2022-08-14T20:56:04.488Z,99787.53
2022-08-14T20:58:47.933Z,99791.22
2022-08-14T21:01:32.697Z,99781.28
2022-08-14T21:04:01.592Z,99782.47
2022-08-14T21:07:22.790Z,99777.94
2022-08-14T21:10:04.974Z,99775.16
2022-08-14T21:12:33.400Z,99776.50
2022-08-14T21:14:59.662Z,99779.22
2022-08-14T21:17:27.185Z,99777.44
2022-08-14T21:19:53.775Z,99777.44
2022-08-14T21:22:20.267Z,99774.16
2022-08-14T21:24:47.841Z,99775.50
2022-08-14T21:27:20.402Z,99772.22
2022-08-14T21:29:55.231Z,99781.34
2022-08-14T21:32:34.543Z,99775.38
2022-08-14T21:35:06.233Z,99768.38
2022-08-14T21:37:43.574Z,99774.97
2022-08-14T21:40:40.888Z,99770.94
2022-08-14T21:43:01.644Z,99771.19
2022-08-14T21:45:28.133Z,99765.22
2022-08-14T21:47:56.332Z,99769.72
2022-08-14T21:51:00.388Z,99770.47
2022-08-14T21:53:10.710Z,99768.06
2022-08-14T21:55:37.445Z,99769.81
2022-08-14T21:58:54.517Z,99764.63
2022-08-14T22:00:51.393Z,99763.97
2022-08-14T22:03:24.106Z,99762.19
2022-08-14T22:05:53.166Z,99761.50
2022-08-14T22:08:22.404Z,99758.66
2022-08-14T22:10:55.346Z,99756.91
2022-08-14T22:13:26.580Z,99755.41
2022-08-14T22:15:59.533Z,99747.69
2022-08-14T22:18:27.070Z,99754.94
2022-08-14T22:20:56.952Z,99763.22
2022-08-14T22:23:24.745Z,99762.50
2022-08-14T22:25:53.416Z,99760.47
2022-08-14T22:28:33.276Z,99758.22
2022-08-14T22:31:03.448Z,99742.22
2022-08-14T22:33:30.909Z,99749.09
2022-08-14T22:35:58.752Z,99740.19
2022-08-14T22:38:35.872Z,99740.69
2022-08-14T22:41:26.573Z,99739.53
2022-08-14T22:43:53.684Z,99738.13
2022-08-14T22:46:21.052Z,99735.66
2022-08-14T22:48:49.298Z,99733.53
2022-08-14T22:51:18.698Z,99732.31
2022-08-14T22:53:48.448Z,99733.53
2022-08-14T22:56:20.773Z,99736.97
2022-08-14T22:58:53.584Z,99729.88
2022-08-14T23:01:55.692Z,99738.44
2022-08-14T23:04:35.350Z,99736.56
2022-08-14T23:07:21.721Z,99734.06
2022-08-14T23:09:55.820Z,99725.53
2022-08-14T23:12:28.861Z,99716.22
2022-08-14T23:14:56.406Z,99706.84
2022-08-14T23:17:23.028Z,99714.19
2022-08-14T23:19:49.558Z,99711.47
2022-08-14T23:22:24.210Z,99710.81
2022-08-14T23:24:53.340Z,99705.97
2022-08-14T23:27:31.688Z,99704.28
2022-08-14T23:30:31.953Z,99694.91
2022-08-14T23:33:01.850Z,99697.41
2022-08-14T23:35:29.110Z,99686.75
2022-08-14T23:38:05.448Z,99695.59
2022-08-14T23:40:34.400Z,99693.84
2022-08-14T23:43:08.159Z,99692.16
2022-08-14T23:45:39.305Z,99699.81
2022-08-14T23:48:12.574Z,99688.06
2022-08-14T23:50:40.987Z,99683.94
2022-08-14T23:53:28.228Z,99678.72
2022-08-14T23:56:32.291Z,99672.69
2022-08-14T23:59:01.190Z,99676.16
